Time;durP1;ratioP1;P1;durP2;ratioP2;P2;SDS_P1;SDS_P2;PMS_P1;PMS_P2;Temp;Humidity;BMP_temperature;BMP_pressure;BME280_temperature;BME280_humidity;BME280_pressure;Samples;Min_cycle;Max_cycle;Signal;HPM_P1;HPM_P2
2024/02/24 00:01:18;;;;;;;14.95;11.60;;;;;;;;;;5002953;28;20054;-60
2024/02/24 00:03:44;;;;;;;14.77;10.70;;;;;;;;;;5010226;28;20034;-60
2024/02/24 00:06:11;;;;;;;13.65;11.25;;;;;;;;;;5028503;28;20037;-61
2024/02/24 00:08:36;;;;;;;11.32;10.18;;;;;;;;;;5024235;28;20105;-60
2024/02/24 00:11:03;;;;;;;15.20;11.57;;;;;;;;;;5018693;28;20060;-61
2024/02/24 00:13:28;;;;;;;14.45;11.27;;;;;;;;;;5012599;28;20113;-60
2024/02/24 00:15:54;;;;;;;14.45;11.77;;;;;;;;;;5012742;28;20429;-60
2024/02/24 00:18:21;;;;;;;14.48;11.95;;;;;;;;;;5012562;28;20025;-60
2024/02/24 00:20:47;;;;;;;14.15;10.88;;;;;;;;;;5012583;28;20040;-60
2024/02/24 00:23:13;;;;;;;12.80;10.48;;;;;;;;;;5012383;28;20029;-60
2024/02/24 00:25:39;;;;;;;13.95;11.25;;;;;;;;;;5013061;28;20137;-60
2024/02/24 00:28:05;;;;;;;15.23;11.40;;;;;;;;;;5009661;28;20204;-60
2024/02/24 00:30:31;;;;;;;14.57;11.38;;;;;;;;;;5008594;28;20033;-60
2024/02/24 00:32:57;;;;;;;13.07;11.52;;;;;;;;;;5011924;28;20030;-60
2024/02/24 00:35:28;;;;;;;14.93;11.75;;;;;;;;;;5003687;28;20030;-60
2024/02/24 00:37:53;;;;;;;13.43;11.38;;;;;;;;;;5012049;28;20022;-60
2024/02/24 00:40:19;;;;;;;14.00;12.23;;;;;;;;;;5012145;28;20025;-60
2024/02/24 00:42:45;;;;;;;13.70;11.65;;;;;;;;;;5012392;28;20105;-60
2024/02/24 00:45:11;;;;;;;15.32;11.50;;;;;;;;;;5012131;28;20441;-60
2024/02/24 00:47:37;;;;;;;12.20;10.52;;;;;;;;;;5000084;28;20109;-60
2024/02/24 00:50:04;;;;;;;11.95;9.98;;;;;;;;;;4996247;28;20022;-60
2024/02/24 00:52:31;;;;;;;12.70;9.60;;;;;;;;;;5006970;28;20385;-60
2024/02/24 00:54:57;;;;;;;11.20;9.40;;;;;;;;;;5003194;28;20033;-60
2024/02/24 00:57:24;;;;;;;10.13;9.07;;;;;;;;;;5010905;28;20026;-60
2024/02/24 00:59:50;;;;;;;10.82;8.73;;;;;;;;;;5011602;28;20360;-60
2024/02/24 01:02:16;;;;;;;11.32;8.95;;;;;;;;;;5002398;28;20026;-60
2024/02/24 01:04:42;;;;;;;10.48;8.50;;;;;;;;;;5011900;28;20026;-60
2024/02/24 01:07:10;;;;;;;8.45;7.45;;;;;;;;;;5009071;28;20072;-60
2024/02/24 01:09:37;;;;;;;8.02;7.22;;;;;;;;;;5010371;28;20434;-60
2024/02/24 01:12:03;;;;;;;10.20;7.90;;;;;;;;;;5011872;28;20033;-60
2024/02/24 01:14:29;;;;;;;7.93;6.88;;;;;;;;;;5011717;28;20030;-60
2024/02/24 01:16:55;;;;;;;9.90;7.68;;;;;;;;;;5011353;28;20509;-59
2024/02/24 01:19:21;;;;;;;8.00;7.10;;;;;;;;;;5013538;28;20030;-60
2024/02/24 01:21:47;;;;;;;9.48;7.47;;;;;;;;;;5011869;28;20033;-62
2024/02/24 01:24:16;;;;;;;9.00;6.72;;;;;;;;;;5011540;28;20026;-60
2024/02/24 01:26:42;;;;;;;8.75;6.80;;;;;;;;;;5011638;28;20080;-60
2024/02/24 01:29:08;;;;;;;8.13;6.05;;;;;;;;;;5011478;28;20026;-60
2024/02/24 01:31:34;;;;;;;7.90;7.07;;;;;;;;;;5010612;28;20033;-60
2024/02/24 01:33:59;;;;;;;8.95;7.47;;;;;;;;;;5008041;28;20546;-60
2024/02/24 01:36:26;;;;;;;9.43;7.75;;;;;;;;;;5007597;28;20049;-60
2024/02/24 01:38:55;;;;;;;10.02;7.55;;;;;;;;;;5007876;28;20034;-60
2024/02/24 01:41:21;;;;;;;8.80;7.45;;;;;;;;;;4992176;28;20077;-61
2024/02/24 01:43:47;;;;;;;10.75;8.27;;;;;;;;;;5010003;28;20034;-61
2024/02/24 01:46:14;;;;;;;10.23;7.85;;;;;;;;;;5011066;28;20023;-60
2024/02/24 01:48:40;;;;;;;;;;;;;;;;;;5011577;28;20152;-60
2024/02/24 01:51:07;;;;;;;10.52;8.23;;;;;;;;;;5017117;28;19924;-61
2024/02/24 01:53:33;;;;;;;11.70;8.82;;;;;;;;;;5016020;28;20029;-60
2024/02/24 01:56:01;;;;;;;9.48;8.45;;;;;;;;;;5011107;28;20026;-60
2024/02/24 01:58:29;;;;;;;11.77;9.88;;;;;;;;;;5013477;28;20037;-60
2024/02/24 02:00:55;;;;;;;15.30;11.23;;;;;;;;;;5014645;28;20341;-60
2024/02/24 02:03:21;;;;;;;12.65;10.13;;;;;;;;;;5015012;28;20033;-60
2024/02/24 02:05:47;;;;;;;15.38;11.43;;;;;;;;;;5012270;28;20030;-60
2024/02/24 02:08:13;;;;;;;19.27;15.32;;;;;;;;;;5018477;28;20032;-60
2024/02/24 02:10:47;;;;;;;20.08;14.13;;;;;;;;;;4998408;28;20026;-60
2024/02/24 02:13:13;;;;;;;23.23;15.82;;;;;;;;;;5014631;28;20026;-60
2024/02/24 02:15:39;;;;;;;20.50;14.85;;;;;;;;;;5014564;28;20045;-60
2024/02/24 02:18:06;;;;;;;21.77;16.00;;;;;;;;;;5014996;28;20040;-60
2024/02/24 02:20:32;;;;;;;22.75;17.40;;;;;;;;;;5014476;28;20026;-60
2024/02/24 02:22:58;;;;;;;19.20;15.50;;;;;;;;;;5016181;28;20118;-60
2024/02/24 02:25:24;;;;;;;19.75;15.77;;;;;;;;;;5013805;28;20295;-60
2024/02/24 02:27:50;;;;;;;24.10;18.38;;;;;;;;;;5010940;28;20030;-61
2024/02/24 02:30:16;;;;;;;24.73;18.70;;;;;;;;;;5008408;28;20037;-61
2024/02/24 02:32:42;;;;;;;26.92;19.88;;;;;;;;;;5009735;28;20041;-61
2024/02/24 02:35:09;;;;;;;27.58;20.67;;;;;;;;;;5002074;28;20769;-60
2024/02/24 02:37:35;;;;;;;27.10;21.77;;;;;;;;;;5004452;28;20159;-61
2024/02/24 02:40:02;;;;;;;33.65;23.75;;;;;;;;;;5012490;28;20037;-61
2024/02/24 02:42:28;;;;;;;39.15;25.05;;;;;;;;;;5014013;28;20058;-61
2024/02/24 02:44:54;;;;;;;37.90;25.88;;;;;;;;;;5013463;28;20439;-61
2024/02/24 02:47:20;;;;;;;43.25;27.33;;;;;;;;;;5013753;28;20022;-61
2024/02/24 02:49:46;;;;;;;44.80;28.38;;;;;;;;;;5013389;28;20029;-61
2024/02/24 02:52:12;;;;;;;46.60;30.17;;;;;;;;;;5013484;28;20417;-61
2024/02/24 02:54:38;;;;;;;42.53;27.77;;;;;;;;;;5012701;28;20096;-61
2024/02/24 02:57:04;;;;;;;41.50;28.60;;;;;;;;;;5013806;28;20371;-61
2024/02/24 02:59:34;;;;;;;45.00;28.52;;;;;;;;;;5013557;28;20061;-60
2024/02/24 03:02:00;;;;;;;48.30;29.13;;;;;;;;;;5009775;28;20041;-61
2024/02/24 03:04:26;;;;;;;53.30;30.73;;;;;;;;;;5011467;28;20029;-61
2024/02/24 03:06:53;;;;;;;48.08;30.42;;;;;;;;;;5005691;28;20078;-61
2024/02/24 03:09:19;;;;;;;49.97;30.73;;;;;;;;;;5021264;28;20049;-61
2024/02/24 03:11:45;;;;;;;47.00;30.55;;;;;;;;;;5013539;28;20022;-60
2024/02/24 03:14:11;;;;;;;46.38;28.92;;;;;;;;;;5012546;28;20096;-60
2024/02/24 03:16:38;;;;;;;49.45;30.02;;;;;;;;;;5012630;28;20084;-60
2024/02/24 03:19:06;;;;;;;48.35;30.20;;;;;;;;;;5017429;28;20431;-60
2024/02/24 03:21:32;;;;;;;46.05;29.05;;;;;;;;;;5012742;28;20061;-60
2024/02/24 03:24:01;;;;;;;43.58;28.40;;;;;;;;;;5012294;28;20132;-60
2024/02/24 03:26:28;;;;;;;47.70;29.50;;;;;;;;;;5004704;28;20030;-61
2024/02/24 03:28:54;;;;;;;45.72;29.77;;;;;;;;;;5007927;28;20194;-60
2024/02/24 03:31:20;;;;;;;43.50;28.67;;;;;;;;;;5009306;28;20104;-60
2024/02/24 03:33:46;;;;;;;47.20;30.40;;;;;;;;;;5012587;28;20072;-60
2024/02/24 03:36:16;;;;;;;47.05;30.35;;;;;;;;;;5013435;28;20054;-60
2024/02/24 03:38:42;;;;;;;49.63;31.60;;;;;;;;;;5013016;28;20057;-60
2024/02/24 03:41:08;;;;;;;46.08;29.13;;;;;;;;;;5020275;28;20030;-60
2024/02/24 03:43:35;;;;;;;45.15;29.95;;;;;;;;;;5013920;28;20102;-59
2024/02/24 03:46:02;;;;;;;41.53;29.40;;;;;;;;;;5011949;28;20026;-60
2024/02/24 03:48:28;;;;;;;42.85;29.60;;;;;;;;;;5013135;28;20022;-60
2024/02/24 03:50:54;;;;;;;46.75;29.80;;;;;;;;;;5013134;28;20041;-60
2024/02/24 03:53:21;;;;;;;44.75;29.45;;;;;;;;;;5012583;28;20040;-60
2024/02/24 03:55:47;;;;;;;45.35;30.50;;;;;;;;;;5010427;28;20030;-60
2024/02/24 03:58:13;;;;;;;47.53;29.88;;;;;;;;;;5009892;28;20096;-60
2024/02/24 04:00:39;;;;;;;44.35;29.20;;;;;;;;;;5026444;28;20499;-60
2024/02/24 04:03:05;;;;;;;41.22;27.88;;;;;;;;;;5007326;28;20391;-60
2024/02/24 04:05:31;;;;;;;44.55;29.00;;;;;;;;;;5002097;28;20365;-60
2024/02/24 04:07:57;;;;;;;40.63;28.20;;;;;;;;;;5010694;28;20068;-60
2024/02/24 04:10:23;;;;;;;39.42;26.65;;;;;;;;;;5005963;28;20032;-60
2024/02/24 04:12:49;;;;;;;41.15;28.50;;;;;;;;;;5007961;28;20453;-60
2024/02/24 04:15:19;;;;;;;42.28;28.38;;;;;;;;;;5008511;28;20030;-60
2024/02/24 04:17:45;;;;;;;41.75;27.92;;;;;;;;;;5011026;28;20049;-60
2024/02/24 04:20:11;;;;;;;42.83;28.70;;;;;;;;;;5012125;28;20101;-60
2024/02/24 04:22:37;;;;;;;40.60;28.02;;;;;;;;;;5014370;28;20026;-60
2024/02/24 04:25:03;;;;;;;42.53;27.73;;;;;;;;;;5013528;28;20480;-60
2024/02/24 04:27:29;;;;;;;40.38;27.60;;;;;;;;;;5012311;28;20479;-60
2024/02/24 04:29:55;;;;;;;43.70;28.25;;;;;;;;;;5012256;28;20033;-60
2024/02/24 04:32:21;;;;;;;40.55;27.67;;;;;;;;;;5010933;28;20056;-60
2024/02/24 04:34:47;;;;;;;41.85;27.20;;;;;;;;;;5009846;28;20368;-60
2024/02/24 04:37:13;;;;;;;39.83;27.85;;;;;;;;;;5012315;28;20109;-60
2024/02/24 04:39:39;;;;;;;43.58;27.35;;;;;;;;;;5008314;28;20041;-60
2024/02/24 04:42:05;;;;;;;39.30;27.33;;;;;;;;;;5002475;28;20134;-60
2024/02/24 04:44:31;;;;;;;43.05;26.92;;;;;;;;;;5011717;28;20392;-60
2024/02/24 04:46:57;;;;;;;37.83;26.05;;;;;;;;;;5012072;28;20022;-60
2024/02/24 04:49:23;;;;;;;37.88;26.20;;;;;;;;;;5021768;28;20469;-60
2024/02/24 04:51:49;;;;;;;43.42;26.63;;;;;;;;;;5014150;28;20049;-60
2024/02/24 04:54:16;;;;;;;37.95;26.27;;;;;;;;;;5006852;28;20073;-60
2024/02/24 04:56:42;;;;;;;40.40;26.52;;;;;;;;;;5007884;28;20037;-60
2024/02/24 04:59:09;;;;;;;40.88;26.00;;;;;;;;;;5011862;28;20021;-60
2024/02/24 05:01:37;;;;;;;44.20;27.80;;;;;;;;;;5010091;28;20408;-60
2024/02/24 05:04:03;;;;;;;40.45;27.80;;;;;;;;;;5009515;28;20038;-59
2024/02/24 05:06:29;;;;;;;47.60;29.58;;;;;;;;;;5007110;28;20033;-59
2024/02/24 05:08:55;;;;;;;47.85;30.05;;;;;;;;;;5013137;28;20109;-60
2024/02/24 05:11:21;;;;;;;44.28;28.17;;;;;;;;;;5010555;28;20443;-61
2024/02/24 05:13:47;;;;;;;44.63;28.30;;;;;;;;;;5011608;28;20471;-60
2024/02/24 05:16:14;;;;;;;44.78;28.98;;;;;;;;;;5011814;28;20072;-61
2024/02/24 05:18:40;;;;;;;43.45;27.67;;;;;;;;;;5001111;28;20109;-61
2024/02/24 05:21:07;;;;;;;41.08;28.33;;;;;;;;;;5011724;28;20026;-61
2024/02/24 05:23:33;;;;;;;45.47;29.58;;;;;;;;;;5007579;28;20038;-61
2024/02/24 05:25:59;;;;;;;46.17;29.50;;;;;;;;;;5009085;28;20126;-61
2024/02/24 05:28:25;;;;;;;45.72;29.42;;;;;;;;;;5004025;28;20101;-61
2024/02/24 05:30:51;;;;;;;44.92;30.42;;;;;;;;;;5010137;28;20026;-60
2024/02/24 05:33:18;;;;;;;46.80;30.35;;;;;;;;;;5015079;28;20030;-61
2024/02/24 05:35:44;;;;;;;50.47;31.02;;;;;;;;;;5016879;28;20053;-60
2024/02/24 05:38:10;;;;;;;48.33;29.90;;;;;;;;;;5015378;28;20115;-60
2024/02/24 05:40:36;;;;;;;51.13;31.52;;;;;;;;;;5009719;28;20019;-60
2024/02/24 05:43:03;;;;;;;50.58;32.58;;;;;;;;;;5015017;28;20128;-59
2024/02/24 05:45:28;;;;;;;50.97;33.38;;;;;;;;;;5015311;28;20022;-60
2024/02/24 05:47:56;;;;;;;50.63;32.78;;;;;;;;;;5015371;28;20037;-60
2024/02/24 05:50:22;;;;;;;52.78;33.78;;;;;;;;;;5015139;28;20018;-59
2024/02/24 05:52:48;;;;;;;50.13;32.85;;;;;;;;;;5016995;28;20108;-59
2024/02/24 05:55:15;;;;;;;54.55;34.70;;;;;;;;;;5015117;28;20097;-59
2024/02/24 05:57:42;;;;;;;52.75;32.25;;;;;;;;;;5014833;28;20129;-59
2024/02/24 06:00:10;;;;;;;50.45;32.45;;;;;;;;;;5014700;28;20107;-60
2024/02/24 06:02:37;;;;;;;48.30;32.67;;;;;;;;;;5014723;28;20344;-59
2024/02/24 06:05:03;;;;;;;53.88;32.47;;;;;;;;;;5015160;28;20109;-60
2024/02/24 06:07:29;;;;;;;49.30;31.95;;;;;;;;;;5015125;28;20029;-60
2024/02/24 06:09:55;;;;;;;53.33;32.35;;;;;;;;;;5012586;28;20507;-60
2024/02/24 06:12:21;;;;;;;47.95;31.20;;;;;;;;;;5005767;28;20109;-60
2024/02/24 06:14:47;;;;;;;50.50;33.30;;;;;;;;;;5006144;28;20044;-60
2024/02/24 06:17:13;;;;;;;51.90;32.30;;;;;;;;;;5008895;28;20018;-60
2024/02/24 06:19:39;;;;;;;52.30;30.83;;;;;;;;;;5002331;28;20253;-64
2024/02/24 06:22:05;;;;;;;49.47;32.03;;;;;;;;;;5013607;28;20156;-60
2024/02/24 06:24:31;;;;;;;53.38;32.53;;;;;;;;;;5012064;28;20045;-58
2024/02/24 06:26:56;;;;;;;50.65;31.27;;;;;;;;;;5013732;28;20034;-60
2024/02/24 06:29:23;;;;;;;48.47;31.13;;;;;;;;;;5011247;28;20084;-59
2024/02/24 06:31:49;;;;;;;48.30;31.33;;;;;;;;;;5008573;28;20029;-60
2024/02/24 06:34:15;;;;;;;51.10;32.33;;;;;;;;;;5008937;28;20038;-60
2024/02/24 06:36:41;;;;;;;54.45;31.98;;;;;;;;;;5003004;28;20534;-60
2024/02/24 06:39:07;;;;;;;54.45;33.30;;;;;;;;;;5007115;28;20079;-60
2024/02/24 06:41:33;;;;;;;48.90;30.85;;;;;;;;;;5010551;28;20076;-60
2024/02/24 06:43:59;;;;;;;49.80;31.55;;;;;;;;;;5009700;28;20038;-59
2024/02/24 06:46:25;;;;;;;53.10;31.92;;;;;;;;;;5008229;28;20038;-59
2024/02/24 06:48:51;;;;;;;45.08;29.63;;;;;;;;;;5003770;28;20027;-59
2024/02/24 06:51:17;;;;;;;51.95;32.67;;;;;;;;;;5006198;28;20034;-60
2024/02/24 06:53:43;;;;;;;49.30;32.33;;;;;;;;;;5011400;28;20037;-59
2024/02/24 06:56:10;;;;;;;47.28;30.88;;;;;;;;;;5013730;28;20032;-59
2024/02/24 06:58:36;;;;;;;46.78;29.95;;;;;;;;;;5007876;28;20030;-59
2024/02/24 07:01:03;;;;;;;42.08;28.73;;;;;;;;;;5012441;28;20046;-59
2024/02/24 07:03:30;;;;;;;41.20;28.33;;;;;;;;;;5013638;28;20099;-59
2024/02/24 07:05:56;;;;;;;43.03;27.67;;;;;;;;;;5013878;28;20022;-59
2024/02/24 07:08:22;;;;;;;34.40;24.40;;;;;;;;;;5011138;28;20076;-59
2024/02/24 07:10:48;;;;;;;38.70;25.38;;;;;;;;;;5009626;28;20443;-60
2024/02/24 07:13:14;;;;;;;37.45;26.27;;;;;;;;;;5009453;28;20080;-61
2024/02/24 07:15:40;;;;;;;36.90;25.67;;;;;;;;;;5007984;28;20105;-60
2024/02/24 07:18:06;;;;;;;33.83;23.75;;;;;;;;;;5008627;28;20057;-60
2024/02/24 07:20:32;;;;;;;33.67;23.48;;;;;;;;;;5013805;28;20472;-61
2024/02/24 07:22:58;;;;;;;33.92;22.83;;;;;;;;;;5012805;28;20152;-61
2024/02/24 07:25:23;;;;;;;32.63;22.65;;;;;;;;;;5013859;28;20049;-61
2024/02/24 07:27:49;;;;;;;33.22;24.17;;;;;;;;;;5016090;28;20036;-61
2024/02/24 07:30:15;;;;;;;28.17;19.75;;;;;;;;;;5002335;28;20030;-61
2024/02/24 07:32:41;;;;;;;27.85;20.33;;;;;;;;;;5010448;28;20044;-61
2024/02/24 07:35:08;;;;;;;26.35;19.05;;;;;;;;;;5013099;28;20029;-61
2024/02/24 07:37:34;;;;;;;27.85;18.27;;;;;;;;;;5002434;28;20081;-62
2024/02/24 07:40:00;;;;;;;26.33;18.05;;;;;;;;;;5004572;28;20077;-62
2024/02/24 07:42:26;;;;;;;25.08;17.30;;;;;;;;;;5003461;28;20026;-62
2024/02/24 07:44:52;;;;;;;24.65;15.85;;;;;;;;;;5012380;28;20535;-62
2024/02/24 07:47:18;;;;;;;19.23;14.35;;;;;;;;;;5013065;28;20088;-62
2024/02/24 07:49:44;;;;;;;24.15;16.05;;;;;;;;;;5012968;28;20033;-62
2024/02/24 07:52:10;;;;;;;19.88;14.93;;;;;;;;;;5018513;28;20443;-62
2024/02/24 07:54:36;;;;;;;20.15;14.40;;;;;;;;;;5010247;28;20106;-62
2024/02/24 07:57:02;;;;;;;22.80;14.90;;;;;;;;;;5012654;28;20460;-62
2024/02/24 07:59:28;;;;;;;22.73;14.27;;;;;;;;;;5005053;28;20511;-62
2024/02/24 08:01:54;;;;;;;26.77;14.52;;;;;;;;;;5007567;28;20026;-62
2024/02/24 08:04:20;;;;;;;18.50;14.00;;;;;;;;;;5007787;28;20033;-63
2024/02/24 08:06:46;;;;;;;25.63;14.77;;;;;;;;;;5012887;28;20396;-63
2024/02/24 08:09:12;;;;;;;25.10;16.65;;;;;;;;;;5003279;28;20042;-63
2024/02/24 08:11:41;;;;;;;27.33;17.52;;;;;;;;;;5017769;28;20045;-63
2024/02/24 08:14:07;;;;;;;29.67;19.38;;;;;;;;;;5012222;28;20042;-62
2024/02/24 08:16:34;;;;;;;30.20;17.40;;;;;;;;;;5016400;28;20021;-62
2024/02/24 08:19:01;;;;;;;24.35;16.92;;;;;;;;;;5006984;28;20022;-62
2024/02/24 08:21:31;;;;;;;23.63;16.00;;;;;;;;;;5008643;28;20045;-62
2024/02/24 08:23:57;;;;;;;20.08;15.02;;;;;;;;;;5008060;28;20026;-62
2024/02/24 08:26:23;;;;;;;25.92;15.40;;;;;;;;;;5009291;28;20025;-68
2024/02/24 08:28:49;;;;;;;25.13;14.43;;;;;;;;;;5010728;28;20118;-62
2024/02/24 08:31:15;;;;;;;20.33;14.27;;;;;;;;;;5012391;28;20566;-62
2024/02/24 08:33:41;;;;;;;19.95;14.63;;;;;;;;;;5012020;28;20049;-62
2024/02/24 08:36:08;;;;;;;20.75;13.43;;;;;;;;;;5010422;28;20030;-62
2024/02/24 08:38:34;;;;;;;18.95;13.00;;;;;;;;;;5007344;28;20132;-62
2024/02/24 08:41:00;;;;;;;18.52;11.90;;;;;;;;;;5012158;28;20022;-62
2024/02/24 08:43:26;;;;;;;14.43;11.23;;;;;;;;;;5018482;28;20022;-62
2024/02/24 08:45:52;;;;;;;14.95;11.15;;;;;;;;;;5009255;28;20031;-62
2024/02/24 08:48:18;;;;;;;15.90;10.98;;;;;;;;;;5002291;28;20332;-62
2024/02/24 08:50:44;;;;;;;15.23;11.50;;;;;;;;;;5012034;28;20022;-62
2024/02/24 08:53:10;;;;;;;17.65;11.40;;;;;;;;;;5011934;28;20034;-62
2024/02/24 08:55:36;;;;;;;15.60;10.80;;;;;;;;;;5012016;28;20116;-62
2024/02/24 08:58:02;;;;;;;17.25;11.07;;;;;;;;;;5009417;28;20491;-62
2024/02/24 09:00:28;;;;;;;18.55;11.52;;;;;;;;;;5007578;28;20064;-62
2024/02/24 09:02:54;;;;;;;18.80;11.70;;;;;;;;;;5009882;28;20036;-62
2024/02/24 09:05:21;;;;;;;17.80;11.27;;;;;;;;;;5014061;28;20365;-62
2024/02/24 09:07:47;;;;;;;14.88;10.38;;;;;;;;;;5011353;28;20021;-63
2024/02/24 09:10:13;;;;;;;15.98;11.65;;;;;;;;;;5011790;28;20025;-63
2024/02/24 09:12:39;;;;;;;16.92;12.25;;;;;;;;;;5011654;28;20025;-63
2024/02/24 09:15:06;;;;;;;18.45;13.23;;;;;;;;;;5010914;28;20363;-63
2024/02/24 09:17:32;;;;;;;76.47;15.75;;;;;;;;;;5011111;28;20036;-63
2024/02/24 09:19:58;;;;;;;15.20;11.77;;;;;;;;;;5003714;28;20388;-63
2024/02/24 09:22:24;;;;;;;14.63;10.25;;;;;;;;;;5003658;28;20029;-63
2024/02/24 09:24:51;;;;;;;15.68;11.13;;;;;;;;;;4993501;28;20117;-63
2024/02/24 09:27:17;;;;;;;16.55;10.45;;;;;;;;;;5012725;28;20492;-63
2024/02/24 09:29:43;;;;;;;14.00;9.68;;;;;;;;;;5000536;28;20029;-63
2024/02/24 09:32:09;;;;;;;13.10;9.52;;;;;;;;;;4994654;28;20053;-63
2024/02/24 09:34:35;;;;;;;13.18;10.05;;;;;;;;;;5011405;28;20092;-63
2024/02/24 09:37:03;;;;;;;13.63;10.10;;;;;;;;;;5011441;28;20056;-63
2024/02/24 09:39:29;;;;;;;16.65;10.25;;;;;;;;;;5011159;28;20029;-63
2024/02/24 09:41:59;;;;;;;10.38;8.80;;;;;;;;;;5014319;28;20060;-63
2024/02/24 09:44:26;;;;;;;12.20;9.13;;;;;;;;;;5009218;28;20041;-63
2024/02/24 09:46:53;;;;;;;13.70;8.68;;;;;;;;;;5009347;28;20479;-63
2024/02/24 09:49:19;;;;;;;13.32;9.77;;;;;;;;;;5011573;28;20037;-63
2024/02/24 09:51:47;;;;;;;13.48;10.07;;;;;;;;;;5011707;28;20034;-63
2024/02/24 09:54:12;;;;;;;14.27;9.60;;;;;;;;;;5011718;28;20383;-65
2024/02/24 09:56:39;;;;;;;12.98;9.20;;;;;;;;;;5011468;28;20022;-65
2024/02/24 09:59:06;;;;;;;14.32;9.68;;;;;;;;;;5007497;28;20090;-65
2024/02/24 10:01:36;;;;;;;14.50;8.80;;;;;;;;;;5013240;28;20144;-65
2024/02/24 10:04:03;;;;;;;14.02;8.77;;;;;;;;;;5010888;28;20547;-65
2024/02/24 10:06:29;;;;;;;10.55;8.75;;;;;;;;;;5011028;28;20044;-65
2024/02/24 10:08:55;;;;;;;13.35;7.88;;;;;;;;;;5006833;28;20030;-66
2024/02/24 10:11:21;;;;;;;11.13;8.18;;;;;;;;;;5004507;28;20022;-65
2024/02/24 10:13:47;;;;;;;9.35;7.10;;;;;;;;;;5014634;28;20029;-65
2024/02/24 10:16:13;;;;;;;12.13;6.60;;;;;;;;;;5011180;28;20349;-65
2024/02/24 10:18:42;;;;;;;11.35;6.18;;;;;;;;;;5011887;28;20037;-65
2024/02/24 10:21:08;;;;;;;10.07;6.10;;;;;;;;;;5013469;28;20033;-65
2024/02/24 10:23:34;;;;;;;10.00;5.90;;;;;;;;;;5009327;28;20084;-65
2024/02/24 10:26:00;;;;;;;10.50;5.70;;;;;;;;;;5004765;28;20046;-65
2024/02/24 10:28:27;;;;;;;8.95;5.32;;;;;;;;;;5008307;28;20022;-65
2024/02/24 10:30:53;;;;;;;7.78;4.30;;;;;;;;;;5013948;28;20041;-65
2024/02/24 10:33:19;;;;;;;10.23;5.78;;;;;;;;;;5014085;28;20123;-65
2024/02/24 10:35:49;;;;;;;7.78;4.30;;;;;;;;;;5014658;28;20478;-65
2024/02/24 10:38:16;;;;;;;9.60;5.00;;;;;;;;;;5011337;28;20475;-65
2024/02/24 10:40:43;;;;;;;8.95;5.20;;;;;;;;;;5015398;28;20460;-65
2024/02/24 10:43:09;;;;;;;5.25;4.20;;;;;;;;;;5015123;28;20022;-65
2024/02/24 10:45:35;;;;;;;11.70;5.10;;;;;;;;;;5013994;28;20073;-65
2024/02/24 10:48:01;;;;;;;7.05;4.60;;;;;;;;;;5014761;28;20025;-67
2024/02/24 10:50:27;;;;;;;8.27;4.30;;;;;;;;;;5014326;28;20057;-57
2024/02/24 10:52:55;;;;;;;6.55;4.40;;;;;;;;;;5014198;28;20037;-58
2024/02/24 10:55:22;;;;;;;6.97;5.20;;;;;;;;;;5014009;28;20076;-56
2024/02/24 10:57:51;;;;;;;8.18;6.07;;;;;;;;;;5010920;28;20121;-56
2024/02/24 11:00:24;;;;;;;10.05;5.57;;;;;;;;;;5022746;28;20117;-59
2024/02/24 11:02:50;;;;;;;8.10;5.32;;;;;;;;;;5011340;28;20057;-59
2024/02/24 11:05:17;;;;;;;9.25;5.68;;;;;;;;;;5012631;28;20101;-58
2024/02/24 11:07:43;;;;;;;10.88;5.95;;;;;;;;;;5008711;28;20017;-56
2024/02/24 11:10:16;;;;;;;10.00;6.45;;;;;;;;;;5013635;28;20018;-66
2024/02/24 11:12:42;;;;;;;7.90;5.88;;;;;;;;;;5013910;28;20037;-59
2024/02/24 11:15:08;;;;;;;6.30;5.43;;;;;;;;;;5013724;28;20102;-63
2024/02/24 11:17:51;;;;;;;8.07;5.82;;;;;;;;;;5005865;28;20033;-61
2024/02/24 11:20:38;;;;;;;8.40;5.75;;;;;;;;;;5000822;28;20030;-64
2024/02/24 11:23:24;;;;;;;8.80;5.32;;;;;;;;;;5008933;28;20425;-66
2024/02/24 11:26:10;;;;;;;7.97;5.07;;;;;;;;;;4999109;28;20092;-65
2024/02/24 11:28:36;;;;;;;9.30;5.93;;;;;;;;;;5008813;28;20034;-60
2024/02/24 11:31:03;;;;;;;14.35;9.70;;;;;;;;;;5008917;28;20046;-60
2024/02/24 11:33:30;;;;;;;10.93;6.03;;;;;;;;;;5012213;28;20038;-60
2024/02/24 11:35:56;;;;;;;12.20;8.30;;;;;;;;;;5013902;28;20029;-59
2024/02/24 11:38:23;;;;;;;11.00;6.45;;;;;;;;;;5013718;28;20076;-60
2024/02/24 11:40:50;;;;;;;8.77;6.13;;;;;;;;;;5011568;28;20488;-59
2024/02/24 11:43:16;;;;;;;8.65;5.43;;;;;;;;;;5012333;28;20451;-58
2024/02/24 11:45:48;;;;;;;9.95;5.88;;;;;;;;;;5022931;28;20030;-59
2024/02/24 11:48:15;;;;;;;10.63;6.35;;;;;;;;;;5013669;28;20025;-59
2024/02/24 11:50:42;;;;;;;14.73;7.38;;;;;;;;;;5016510;28;20136;-57
2024/02/24 11:53:08;;;;;;;14.00;8.15;;;;;;;;;;5012777;28;20077;-59
2024/02/24 11:55:34;;;;;;;10.93;8.20;;;;;;;;;;5013524;28;20384;-58
2024/02/24 11:58:03;;;;;;;15.93;8.70;;;;;;;;;;5013317;28;20026;-58
2024/02/24 12:00:30;;;;;;;13.27;8.07;;;;;;;;;;5010458;28;20034;-59
2024/02/24 12:02:56;;;;;;;14.52;8.63;;;;;;;;;;5002978;28;20056;-60
2024/02/24 12:05:23;;;;;;;16.90;9.93;;;;;;;;;;5013256;28;20029;-58
2024/02/24 12:07:49;;;;;;;14.00;9.30;;;;;;;;;;5012722;28;20018;-58
2024/02/24 12:10:15;;;;;;;15.35;9.73;;;;;;;;;;5013119;28;20033;-57
2024/02/24 12:12:41;;;;;;;13.38;9.82;;;;;;;;;;5011332;28;20041;-59
2024/02/24 12:15:08;;;;;;;15.00;10.38;;;;;;;;;;5012875;28;20538;-57
2024/02/24 12:17:34;;;;;;;16.75;10.60;;;;;;;;;;5012339;28;20101;-58
2024/02/24 12:20:02;;;;;;;20.48;11.88;;;;;;;;;;5015240;28;20084;-58
2024/02/24 12:22:28;;;;;;;17.08;12.02;;;;;;;;;;5014828;28;20108;-58
2024/02/24 12:24:54;;;;;;;17.63;11.40;;;;;;;;;;5014956;28;20116;-60
2024/02/24 12:27:21;;;;;;;18.33;11.05;;;;;;;;;;5009496;28;20025;-59
2024/02/24 12:29:48;;;;;;;14.40;11.07;;;;;;;;;;5011017;28;20530;-59
2024/02/24 12:32:14;;;;;;;17.77;11.55;;;;;;;;;;5001577;28;20069;-59
2024/02/24 12:34:40;;;;;;;17.30;11.52;;;;;;;;;;5004480;28;20456;-59
2024/02/24 12:37:07;;;;;;;18.17;11.90;;;;;;;;;;5012457;28;20026;-59
2024/02/24 12:39:34;;;;;;;16.50;11.25;;;;;;;;;;5011234;28;20033;-59
2024/02/24 12:42:01;;;;;;;15.35;11.00;;;;;;;;;;5011632;28;20109;-58
2024/02/24 12:44:27;;;;;;;17.65;12.13;;;;;;;;;;4998797;28;20065;-58
2024/02/24 12:46:53;;;;;;;17.17;11.10;;;;;;;;;;5012041;28;20429;-58
2024/02/24 12:49:19;;;;;;;14.18;11.13;;;;;;;;;;5012400;28;20170;-58
2024/02/24 12:51:54;;;;;;;15.65;11.88;;;;;;;;;;5012233;28;20121;-58
2024/02/24 12:54:20;;;;;;;17.30;10.82;;;;;;;;;;5011737;28;20109;-58
2024/02/24 12:56:46;;;;;;;16.08;11.23;;;;;;;;;;5002176;28;20468;-59
2024/02/24 12:59:12;;;;;;;18.58;11.07;;;;;;;;;;5027018;28;20029;-60
2024/02/24 13:01:39;;;;;;;14.35;10.55;;;;;;;;;;5012109;28;20049;-59
2024/02/24 13:04:05;;;;;;;14.43;10.25;;;;;;;;;;5012221;28;20025;-59
2024/02/24 13:06:30;;;;;;;15.07;9.45;;;;;;;;;;5015081;28;20379;-60
2024/02/24 13:08:56;;;;;;;14.70;9.95;;;;;;;;;;5020247;28;20041;-57
2024/02/24 13:11:22;;;;;;;15.55;10.13;;;;;;;;;;5012044;28;21478;-58
2024/02/24 13:13:48;;;;;;;16.23;11.48;;;;;;;;;;5012266;28;20046;-59
2024/02/24 13:16:14;;;;;;;15.98;10.45;;;;;;;;;;5013420;28;20025;-60
2024/02/24 13:18:40;;;;;;;16.23;10.30;;;;;;;;;;5010669;28;20041;-59
2024/02/24 13:21:07;;;;;;;18.23;11.65;;;;;;;;;;5010544;28;20065;-59
2024/02/24 13:23:33;;;;;;;16.55;11.10;;;;;;;;;;5010268;28;20087;-59
2024/02/24 13:25:59;;;;;;;16.35;11.32;;;;;;;;;;5005000;28;20030;-57
2024/02/24 13:28:25;;;;;;;19.35;10.95;;;;;;;;;;5000793;28;20081;-56
2024/02/24 13:30:51;;;;;;;15.32;11.20;;;;;;;;;;5005163;28;20114;-58
2024/02/24 13:33:17;;;;;;;19.45;10.48;;;;;;;;;;5011015;28;20070;-59
2024/02/24 13:35:42;;;;;;;14.15;10.65;;;;;;;;;;5011691;28;20041;-60
2024/02/24 13:38:09;;;;;;;15.85;11.57;;;;;;;;;;5011452;28;20033;-59
2024/02/24 13:40:35;;;;;;;13.15;10.45;;;;;;;;;;5011404;28;20026;-59
2024/02/24 13:43:01;;;;;;;16.02;10.10;;;;;;;;;;5013674;28;20054;-59
2024/02/24 13:45:27;;;;;;;15.75;9.57;;;;;;;;;;5011763;28;20030;-57
2024/02/24 13:47:53;;;;;;;17.23;9.80;;;;;;;;;;5011463;28;20209;-60
2024/02/24 13:50:22;;;;;;;15.10;9.00;;;;;;;;;;5005248;28;20061;-57
2024/02/24 13:52:48;;;;;;;12.90;8.65;;;;;;;;;;5011251;28;20389;-58
2024/02/24 13:55:14;;;;;;;15.93;10.20;;;;;;;;;;5027471;28;20030;-58
2024/02/24 13:57:41;;;;;;;15.30;11.05;;;;;;;;;;5014527;28;20030;-59
2024/02/24 14:00:10;;;;;;;13.88;10.45;;;;;;;;;;5014714;28;20459;-58
2024/02/24 14:02:36;;;;;;;16.17;9.95;;;;;;;;;;5015125;28;20135;-59
2024/02/24 14:05:02;;;;;;;16.60;10.88;;;;;;;;;;5015208;28;20038;-58
2024/02/24 14:07:28;;;;;;;23.35;12.00;;;;;;;;;;5013014;28;20580;-58
2024/02/24 14:09:54;;;;;;;22.10;12.38;;;;;;;;;;5018210;28;20470;-58
2024/02/24 14:12:20;;;;;;;17.75;12.25;;;;;;;;;;5019906;28;20094;-58
2024/02/24 14:14:46;;;;;;;14.63;11.20;;;;;;;;;;5015064;28;20122;-58
2024/02/24 14:17:13;;;;;;;18.77;12.82;;;;;;;;;;5015271;28;20072;-58
2024/02/24 14:19:39;;;;;;;17.27;12.07;;;;;;;;;;5014638;28;20080;-58